Flight Track Log - Related Links

Times and Time Zones

All times are in EDT time to prevent confusion due to time zone crossing. See the SWA2403 flight status page for this flight to view local times or setup timezone preferences in your user account.

Time Position Orientation Groundspeed Altitude Reporting Facility
EDT Latitude Longitude Course Direction KTS MPH feet Rate Location/Type
Fri 09:59:31 PM 36.0767 -115.1706 269° West 153 176 3,400  Level Los Angeles Center
Fri 10:00:26 PM 36.0758 -115.2267 269° West 197 227 4,900 1,451 Climbing Los Angeles Center
Fri 10:01:02 PM 36.0539 -115.2622 233° Southwest 231 266 5,600 1,869 Climbing Los Angeles Center
Fri 10:01:27 PM 36.0219 -115.2764 200° South 275 316 6,800 1,377 Climbing Los Angeles Center
Fri 10:02:03 PM 35.9808 -115.2953 200° South 263 303 7,000 448 Climbing Los Angeles Center
Fri 10:02:34 PM 35.9492 -115.3294 221° Southwest 276 318 7,300 1,645 Climbing Los Angeles Center
Fri 10:03:05 PM 35.9239 -115.3589 223° Southwest 272 313 8,700 1,672 Climbing Los Angeles Center
Fri 10:03:35 PM 35.8922 -115.3958 223° Southwest 289 333 9,000 581 Climbing Los Angeles Center
Fri 10:04:07 PM 35.8864 -115.4397 261° West 278 320 9,300 1,915 Climbing Los Angeles Center
Fri 10:05:09 PM 35.8883 -115.5358 271° West 277 319 12,000 2,732 Climbing Los Angeles Center
Fri 10:06:10 PM 35.8903 -115.6592 271° West 340 391 14,900 3,073 Climbing Los Angeles Center
Fri 10:07:12 PM 35.8925 -115.7919 271° West 360 414 18,300 3,048 Climbing Los Angeles Center
Fri 10:08:14 PM 35.8950 -115.9178 271° West 368 423 21,200 2,613 Climbing Los Angeles Center
Fri 10:09:16 PM 35.9481 -116.0297 300° West 364 419 23,700 2,244 Climbing Los Angeles Center
Fri 10:10:17 PM 36.0272 -116.1200 317° Northwest 379 436 25,800 2,146 Climbing Los Angeles Center
Fri 10:11:19 PM 36.1061 -116.2108 317° Northwest 385 443 28,100 2,274 Climbing Los Angeles Center
Fri 10:12:21 PM 36.1725 -116.2883 317° Northwest 382 440 30,500 2,371 Climbing Los Angeles Center
Fri 10:13:23 PM 36.2633 -116.3942 317° Northwest 376 433 33,000 1,707 Climbing Los Angeles Center
Fri 10:14:24 PM 36.3367 -116.4789 317° Northwest 367 422 34,000 488 Climbing Los Angeles Center
Fri 10:15:26 PM 36.4131 -116.5667 317° Northwest 372 428 34,000  Level Los Angeles Center
Fri 10:16:28 PM 36.4894 -116.6569 316° Northwest 378 435 34,000  Level Los Angeles Center
Fri 10:17:29 PM 36.5789 -116.7611 317° Northwest 379 436 34,000  Level Los Angeles Center
Fri 10:18:31 PM 36.6703 -116.8275 330° Northwest 382 440 34,000  Level Los Angeles Center
Fri 10:19:33 PM 36.7631 -116.8956 330° Northwest 379 436 34,000  Level Los Angeles Center
Fri 10:20:35 PM 36.8500 -116.9644 328° Northwest 379 436 34,000  Level Los Angeles Center
Fri 10:21:36 PM 36.9386 -117.0319 329° Northwest 374 430 34,000  Level Los Angeles Center
Fri 10:22:38 PM 37.0297 -117.1006 329° Northwest 379 436 34,000  Level Los Angeles Center
Fri 10:23:43 PM 37.1356 -117.1850 328° Northwest 375 432 34,000  Level Oakland Center
Fri 10:24:44 PM 37.2256 -117.2539 329° Northwest 376 433 34,000  Level Oakland Center
Fri 10:25:45 PM 37.3108 -117.3264 326° Northwest 370 426 34,000  Level Oakland Center
Fri 10:26:46 PM 37.3753 -117.4253 309° West 360 414 34,000  Level Oakland Center
Fri 10:27:46 PM 37.4306 -117.5328 303° West 362 417 34,000 -298 Level Oakland Center
Fri 10:28:47 PM 37.4819 -117.6422 301° West 361 415 33,400 -738 Descending Oakland Center
Fri 10:29:48 PM 37.5347 -117.7508 302° West 361 415 32,500 -689 Descending Oakland Center
Fri 10:30:49 PM 37.5850 -117.8603 300° West 360 414 32,000 -246 Descending Oakland Center
Fri 10:31:50 PM 37.6364 -117.9694 301° West 359 413 32,000  Level Oakland Center
Fri 10:32:51 PM 37.6872 -118.0772 301° West 356 410 32,000  Level Oakland Center
Fri 10:33:53 PM 37.7378 -118.1858 301° West 356 410 32,000  Level Oakland Center
Fri 10:34:54 PM 37.7872 -118.2944 300° West 353 406 32,000  Level Oakland Center
Fri 10:35:55 PM 37.8375 -118.4050 300° West 358 412 32,000 -492 Level Oakland Center
Fri 10:36:56 PM 37.8903 -118.5161 301° West 365 420 31,000 -934 Descending Oakland Center
Fri 10:37:57 PM 37.9408 -118.6286 300° West 366 421 30,100 -492 Descending Oakland Center
Fri 10:38:58 PM 37.9933 -118.7428 300° West 371 427 30,000 -49 Descending Oakland Center
Fri 10:39:59 PM 38.0569 -118.8789 301° West 373 429 30,000  Level Oakland Center
Fri 10:41:00 PM 38.1092 -118.9900 301° West 368 423 30,000  Level Oakland Center
Fri 10:42:01 PM 38.1600 -119.1031 300° West 368 423 30,000 -49 Level Oakland Center
Fri 10:43:03 PM 38.2108 -119.2147 300° West 366 421 29,900 -537 Descending Oakland Center
Fri 10:44:04 PM 38.2606 -119.3278 299° West 365 420 28,900 -984 Descending Oakland Center
Fri 10:45:05 PM 38.3136 -119.4439 300° West 374 430 27,900 -984 Descending Oakland Center
Fri 10:46:06 PM 38.3617 -119.5539 299° West 378 435 26,900 -1,033 Descending Oakland Center
Fri 10:47:07 PM 38.4178 -119.6769 300° West 377 434 25,800 -1,024 Descending Oakland Center
Fri 10:48:09 PM 38.4694 -119.7925 300° West 375 432 24,800 -1,073 Descending Oakland Center
Fri 10:49:10 PM 38.5244 -119.9194 299° West 367 422 23,600 -1,082 Descending Oakland Center
Fri 10:50:11 PM 38.5733 -120.0322 299° West 365 420 22,600 -984 Descending Oakland Center
Fri 10:51:12 PM 38.6219 -120.1431 299° West 361 415 21,600 -984 Descending Oakland Center
Fri 10:52:13 PM 38.6689 -120.2536 299° West 357 411 20,600 -984 Descending Oakland Center
Fri 10:53:14 PM 38.7175 -120.3628 300° West 355 409 19,600 -976 Descending Oakland Center
Fri 10:54:16 PM 38.7464 -120.4850 287° West 363 418 18,600 -927 Descending Oakland Center
Fri 10:55:17 PM 38.7664 -120.6103 282° West 362 417 17,700 -984 Descending Oakland Center
Fri 10:56:18 PM 38.7864 -120.7344 282° West 359 413 16,600 -1,082 Descending Oakland Center
Fri 10:57:19 PM 38.8067 -120.8572 282° West 356 410 15,500 -1,902 Descending Oakland Center
Fri 10:58:21 PM 38.8294 -121.0006 282° West 347 399 12,700 -2,341 Descending Oakland Center
Fri 10:59:22 PM 38.8483 -121.1139 282° West 333 383 10,700 -1,694 Descending Oakland Center
Fri 10:59:46 PM 38.8500 -121.1667 272° West 314 361 10,300 -1,000 Descending Northern Cal TRACON
Fri 11:00:52 PM 38.8833 -121.2500 297° West 271 312 9,200 -1,286 Descending Northern Cal TRACON
Fri 11:01:52 PM 38.9333 -121.3333 308° West 268 308 7,600 -1,700 Descending Northern Cal TRACON
Fri 11:02:52 PM 38.9333 -121.4333 270° West 261 300 5,800 -1,850 Descending Northern Cal TRACON
Fri 11:03:52 PM 38.9167 -121.5167 256° West 265 305 3,900 -1,650 Descending Northern Cal TRACON
Fri 11:04:52 PM 38.8667 -121.5667 218° Southwest 234 269 2,500 -905 Descending Northern Cal TRACON
Fri 11:05:58 PM 38.8000 -121.6000 201° Southwest 202 232 2,000 -650 Descending Northern Cal TRACON
Fri 11:06:52 PM 38.7667 -121.6000 180° South 169 194 1,200 -842 Descending Northern Cal TRACON
Fri 11:07:52 PM 38.7167 -121.6000 180° South 142 163 400 -800 Descending Northern Cal TRACON
Fri 11:10:00 PM 38.6954 -121.5908 218° Southwest  Level Estimated

Login

Don't have an account? Register now (free) for customized features, flight alerts, and more!